sensor_id;sensor_type;location;lat;lon;timestamp;P1;durP1;ratioP1;P2;durP2;ratioP2
55312;SDS011;46892;45.668;11.756;2023-04-03T00:01:28;10.20;;;7.70;;
55312;SDS011;46892;45.668;11.756;2023-04-03T00:03:54;12.90;;;7.70;;
55312;SDS011;46892;45.668;11.756;2023-04-03T00:06:20;11.10;;;7.93;;
55312;SDS011;46892;45.668;11.756;2023-04-03T00:08:47;12.90;;;7.70;;
55312;SDS011;46892;45.668;11.756;2023-04-03T00:11:13;11.50;;;7.53;;
55312;SDS011;46892;45.668;11.756;2023-04-03T00:13:40;10.83;;;6.63;;
55312;SDS011;46892;45.668;11.756;2023-04-03T00:16:07;10.00;;;7.50;;
55312;SDS011;46892;45.668;11.756;2023-04-03T00:18:33;8.27;;;6.80;;
55312;SDS011;46892;45.668;11.756;2023-04-03T00:20:59;11.57;;;7.63;;
55312;SDS011;46892;45.668;11.756;2023-04-03T00:23:25;9.00;;;6.50;;
55312;SDS011;46892;45.668;11.756;2023-04-03T00:25:51;9.00;;;6.33;;
55312;SDS011;46892;45.668;11.756;2023-04-03T00:28:17;13.27;;;6.60;;
55312;SDS011;46892;45.668;11.756;2023-04-03T00:30:43;10.10;;;6.20;;
55312;SDS011;46892;45.668;11.756;2023-04-03T00:33:11;9.57;;;6.30;;
55312;SDS011;46892;45.668;11.756;2023-04-03T00:35:37;12.47;;;7.00;;
55312;SDS011;46892;45.668;11.756;2023-04-03T00:38:03;8.20;;;5.57;;
55312;SDS011;46892;45.668;11.756;2023-04-03T00:40:33;10.23;;;6.20;;
55312;SDS011;46892;45.668;11.756;2023-04-03T00:43:00;10.27;;;6.73;;
55312;SDS011;46892;45.668;11.756;2023-04-03T00:45:28;11.00;;;6.50;;
55312;SDS011;46892;45.668;11.756;2023-04-03T00:47:56;11.93;;;7.15;;
55312;SDS011;46892;45.668;11.756;2023-04-03T00:50:25;12.70;;;7.43;;
55312;SDS011;46892;45.668;11.756;2023-04-03T00:52:52;9.00;;;6.77;;
55312;SDS011;46892;45.668;11.756;2023-04-03T00:55:18;9.70;;;7.50;;
55312;SDS011;46892;45.668;11.756;2023-04-03T00:57:45;12.10;;;6.87;;
55312;SDS011;46892;45.668;11.756;2023-04-03T01:00:12;10.87;;;7.40;;
55312;SDS011;46892;45.668;11.756;2023-04-03T01:02:41;9.57;;;7.60;;
55312;SDS011;46892;45.668;11.756;2023-04-03T01:05:07;12.87;;;7.70;;
55312;SDS011;46892;45.668;11.756;2023-04-03T01:07:33;9.77;;;7.13;;
55312;SDS011;46892;45.668;11.756;2023-04-03T01:10:01;10.10;;;7.77;;
55312;SDS011;46892;45.668;11.756;2023-04-03T01:12:33;11.00;;;7.53;;
55312;SDS011;46892;45.668;11.756;2023-04-03T01:25:36;11.67;;;7.67;;
55312;SDS011;46892;45.668;11.756;2023-04-03T01:28:04;11.20;;;7.50;;
55312;SDS011;46892;45.668;11.756;2023-04-03T01:30:32;9.67;;;6.63;;
55312;SDS011;46892;45.668;11.756;2023-04-03T01:33:04;9.27;;;6.20;;
55312;SDS011;46892;45.668;11.756;2023-04-03T01:35:30;8.87;;;6.47;;
55312;SDS011;46892;45.668;11.756;2023-04-03T01:37:56;9.97;;;6.23;;
55312;SDS011;46892;45.668;11.756;2023-04-03T01:40:21;9.10;;;6.20;;
55312;SDS011;46892;45.668;11.756;2023-04-03T01:42:47;8.40;;;6.17;;
55312;SDS011;46892;45.668;11.756;2023-04-03T01:45:12;7.07;;;5.10;;
55312;SDS011;46892;45.668;11.756;2023-04-03T01:47:38;6.40;;;4.73;;
55312;SDS011;46892;45.668;11.756;2023-04-03T01:50:04;8.33;;;5.10;;
55312;SDS011;46892;45.668;11.756;2023-04-03T01:52:30;7.20;;;5.00;;
55312;SDS011;46892;45.668;11.756;2023-04-03T01:54:55;7.33;;;4.40;;
55312;SDS011;46892;45.668;11.756;2023-04-03T01:57:21;8.07;;;4.80;;
55312;SDS011;46892;45.668;11.756;2023-04-03T01:59:47;7.27;;;4.80;;
55312;SDS011;46892;45.668;11.756;2023-04-03T02:02:12;6.17;;;4.30;;
55312;SDS011;46892;45.668;11.756;2023-04-03T02:04:39;6.47;;;4.40;;
55312;SDS011;46892;45.668;11.756;2023-04-03T02:07:05;7.10;;;4.20;;
55312;SDS011;46892;45.668;11.756;2023-04-03T02:09:31;5.90;;;4.03;;
55312;SDS011;46892;45.668;11.756;2023-04-03T02:11:57;6.00;;;4.20;;
55312;SDS011;46892;45.668;11.756;2023-04-03T02:14:22;7.87;;;4.70;;
55312;SDS011;46892;45.668;11.756;2023-04-03T02:16:48;5.03;;;3.20;;
55312;SDS011;46892;45.668;11.756;2023-04-03T02:19:14;4.83;;;3.00;;
55312;SDS011;46892;45.668;11.756;2023-04-03T02:21:41;4.57;;;3.27;;
55312;SDS011;46892;45.668;11.756;2023-04-03T02:24:06;6.13;;;3.57;;
55312;SDS011;46892;45.668;11.756;2023-04-03T02:26:32;6.93;;;3.57;;
55312;SDS011;46892;45.668;11.756;2023-04-03T02:28:58;5.57;;;3.33;;
55312;SDS011;46892;45.668;11.756;2023-04-03T02:31:24;5.43;;;3.23;;
55312;SDS011;46892;45.668;11.756;2023-04-03T02:33:50;4.10;;;2.70;;
55312;SDS011;46892;45.668;11.756;2023-04-03T02:36:16;3.77;;;2.60;;
55312;SDS011;46892;45.668;11.756;2023-04-03T02:38:42;5.37;;;2.83;;
55312;SDS011;46892;45.668;11.756;2023-04-03T02:41:09;4.37;;;3.03;;
55312;SDS011;46892;45.668;11.756;2023-04-03T02:43:35;5.03;;;3.20;;
55312;SDS011;46892;45.668;11.756;2023-04-03T02:46:01;4.67;;;3.13;;
55312;SDS011;46892;45.668;11.756;2023-04-03T02:48:28;5.70;;;2.87;;
55312;SDS011;46892;45.668;11.756;2023-04-03T02:50:53;5.07;;;2.77;;
55312;SDS011;46892;45.668;11.756;2023-04-03T02:53:19;5.90;;;3.20;;
55312;SDS011;46892;45.668;11.756;2023-04-03T02:55:45;5.17;;;3.33;;
55312;SDS011;46892;45.668;11.756;2023-04-03T02:58:11;5.73;;;3.33;;
55312;SDS011;46892;45.668;11.756;2023-04-03T03:00:37;5.93;;;3.47;;
55312;SDS011;46892;45.668;11.756;2023-04-03T03:03:03;7.67;;;3.87;;
55312;SDS011;46892;45.668;11.756;2023-04-03T03:05:28;10.73;;;3.37;;
55312;SDS011;46892;45.668;11.756;2023-04-03T03:07:55;8.03;;;3.37;;
55312;SDS011;46892;45.668;11.756;2023-04-03T03:10:21;4.63;;;3.00;;
55312;SDS011;46892;45.668;11.756;2023-04-03T03:12:47;9.73;;;3.10;;
55312;SDS011;46892;45.668;11.756;2023-04-03T03:15:12;4.20;;;3.03;;
55312;SDS011;46892;45.668;11.756;2023-04-03T03:17:38;5.30;;;3.50;;
55312;SDS011;46892;45.668;11.756;2023-04-03T03:20:04;6.80;;;3.00;;
55312;SDS011;46892;45.668;11.756;2023-04-03T03:22:31;7.10;;;3.10;;
55312;SDS011;46892;45.668;11.756;2023-04-03T03:24:57;4.30;;;2.60;;
55312;SDS011;46892;45.668;11.756;2023-04-03T03:27:22;7.67;;;2.80;;
55312;SDS011;46892;45.668;11.756;2023-04-03T03:29:49;5.53;;;3.00;;
55312;SDS011;46892;45.668;11.756;2023-04-03T03:32:14;5.50;;;2.57;;
55312;SDS011;46892;45.668;11.756;2023-04-03T03:34:40;4.37;;;2.40;;
55312;SDS011;46892;45.668;11.756;2023-04-03T03:37:06;5.17;;;2.53;;
55312;SDS011;46892;45.668;11.756;2023-04-03T03:39:31;4.63;;;2.23;;
55312;SDS011;46892;45.668;11.756;2023-04-03T03:41:57;4.40;;;2.60;;
55312;SDS011;46892;45.668;11.756;2023-04-03T03:44:23;5.63;;;2.50;;
55312;SDS011;46892;45.668;11.756;2023-04-03T03:46:48;4.20;;;2.50;;
55312;SDS011;46892;45.668;11.756;2023-04-03T03:49:14;4.97;;;2.73;;
55312;SDS011;46892;45.668;11.756;2023-04-03T03:51:40;5.93;;;2.57;;
55312;SDS011;46892;45.668;11.756;2023-04-03T03:54:06;4.17;;;2.50;;
55312;SDS011;46892;45.668;11.756;2023-04-03T03:56:33;5.07;;;2.60;;
55312;SDS011;46892;45.668;11.756;2023-04-03T03:58:59;7.23;;;3.00;;
55312;SDS011;46892;45.668;11.756;2023-04-03T04:01:25;4.03;;;2.50;;
55312;SDS011;46892;45.668;11.756;2023-04-03T04:03:51;4.53;;;2.80;;
55312;SDS011;46892;45.668;11.756;2023-04-03T04:06:18;4.40;;;2.80;;
55312;SDS011;46892;45.668;11.756;2023-04-03T04:08:44;4.83;;;2.70;;
55312;SDS011;46892;45.668;11.756;2023-04-03T04:11:10;5.53;;;2.80;;
55312;SDS011;46892;45.668;11.756;2023-04-03T04:13:36;5.33;;;2.67;;
55312;SDS011;46892;45.668;11.756;2023-04-03T04:16:02;5.43;;;2.97;;
55312;SDS011;46892;45.668;11.756;2023-04-03T04:18:28;5.50;;;3.07;;
55312;SDS011;46892;45.668;11.756;2023-04-03T04:20:53;5.53;;;3.03;;
55312;SDS011;46892;45.668;11.756;2023-04-03T04:23:19;5.63;;;2.80;;
55312;SDS011;46892;45.668;11.756;2023-04-03T04:25:45;8.33;;;3.60;;
55312;SDS011;46892;45.668;11.756;2023-04-03T04:28:11;6.27;;;2.90;;
55312;SDS011;46892;45.668;11.756;2023-04-03T04:30:37;4.23;;;3.17;;
55312;SDS011;46892;45.668;11.756;2023-04-03T04:33:03;6.13;;;3.10;;
55312;SDS011;46892;45.668;11.756;2023-04-03T04:35:29;4.30;;;2.90;;
55312;SDS011;46892;45.668;11.756;2023-04-03T04:37:54;4.83;;;2.97;;
55312;SDS011;46892;45.668;11.756;2023-04-03T04:40:20;7.00;;;3.33;;
55312;SDS011;46892;45.668;11.756;2023-04-03T04:42:46;7.07;;;2.90;;
55312;SDS011;46892;45.668;11.756;2023-04-03T04:45:12;5.53;;;3.10;;
55312;SDS011;46892;45.668;11.756;2023-04-03T04:47:38;4.93;;;2.87;;
55312;SDS011;46892;45.668;11.756;2023-04-03T04:50:04;5.70;;;3.50;;
55312;SDS011;46892;45.668;11.756;2023-04-03T04:52:30;5.13;;;3.13;;
55312;SDS011;46892;45.668;11.756;2023-04-03T04:54:56;4.90;;;2.73;;
55312;SDS011;46892;45.668;11.756;2023-04-03T04:57:21;7.93;;;3.53;;
55312;SDS011;46892;45.668;11.756;2023-04-03T04:59:47;5.30;;;2.73;;
55312;SDS011;46892;45.668;11.756;2023-04-03T05:02:13;4.87;;;3.17;;
55312;SDS011;46892;45.668;11.756;2023-04-03T05:04:38;5.83;;;3.33;;
55312;SDS011;46892;45.668;11.756;2023-04-03T05:07:04;4.63;;;3.10;;
55312;SDS011;46892;45.668;11.756;2023-04-03T05:09:30;9.03;;;3.80;;
55312;SDS011;46892;45.668;11.756;2023-04-03T05:11:55;7.70;;;3.97;;
55312;SDS011;46892;45.668;11.756;2023-04-03T05:14:21;7.77;;;4.80;;
55312;SDS011;46892;45.668;11.756;2023-04-03T05:16:47;9.73;;;4.13;;
55312;SDS011;46892;45.668;11.756;2023-04-03T05:19:13;5.37;;;3.37;;
55312;SDS011;46892;45.668;11.756;2023-04-03T05:21:38;9.50;;;3.77;;
55312;SDS011;46892;45.668;11.756;2023-04-03T05:24:04;7.13;;;3.50;;
55312;SDS011;46892;45.668;11.756;2023-04-03T05:26:34;6.93;;;3.50;;
55312;SDS011;46892;45.668;11.756;2023-04-03T05:28:59;4.77;;;3.00;;
55312;SDS011;46892;45.668;11.756;2023-04-03T05:31:25;6.63;;;3.40;;
55312;SDS011;46892;45.668;11.756;2023-04-03T05:33:54;6.60;;;3.10;;
55312;SDS011;46892;45.668;11.756;2023-04-03T05:36:20;6.77;;;3.53;;
55312;SDS011;46892;45.668;11.756;2023-04-03T05:38:46;12.03;;;4.17;;
55312;SDS011;46892;45.668;11.756;2023-04-03T05:41:12;8.17;;;3.97;;
55312;SDS011;46892;45.668;11.756;2023-04-03T05:43:38;8.37;;;3.30;;
55312;SDS011;46892;45.668;11.756;2023-04-03T05:46:08;8.70;;;3.80;;
55312;SDS011;46892;45.668;11.756;2023-04-03T05:48:42;5.93;;;3.10;;
55312;SDS011;46892;45.668;11.756;2023-04-03T05:51:13;7.73;;;3.23;;
55312;SDS011;46892;45.668;11.756;2023-04-03T05:53:41;6.43;;;2.93;;
55312;SDS011;46892;45.668;11.756;2023-04-03T05:56:08;5.83;;;3.20;;
55312;SDS011;46892;45.668;11.756;2023-04-03T05:58:33;5.43;;;2.47;;
55312;SDS011;46892;45.668;11.756;2023-04-03T06:00:59;4.20;;;2.40;;
55312;SDS011;46892;45.668;11.756;2023-04-03T06:03:25;5.50;;;2.70;;
55312;SDS011;46892;45.668;11.756;2023-04-03T06:05:51;3.03;;;2.37;;
55312;SDS011;46892;45.668;11.756;2023-04-03T06:08:17;5.87;;;2.80;;
55312;SDS011;46892;45.668;11.756;2023-04-03T06:10:43;3.90;;;2.70;;
55312;SDS011;46892;45.668;11.756;2023-04-03T06:13:10;6.10;;;3.20;;
55312;SDS011;46892;45.668;11.756;2023-04-03T06:15:36;5.07;;;3.03;;
55312;SDS011;46892;45.668;11.756;2023-04-03T06:18:03;4.80;;;2.90;;
55312;SDS011;46892;45.668;11.756;2023-04-03T06:20:29;6.93;;;3.20;;
55312;SDS011;46892;45.668;11.756;2023-04-03T06:22:56;5.33;;;2.70;;
55312;SDS011;46892;45.668;11.756;2023-04-03T06:25:21;6.13;;;2.83;;
55312;SDS011;46892;45.668;11.756;2023-04-03T06:27:48;9.80;;;3.30;;
55312;SDS011;46892;45.668;11.756;2023-04-03T06:30:13;8.40;;;3.20;;
55312;SDS011;46892;45.668;11.756;2023-04-03T06:32:39;7.23;;;2.90;;
55312;SDS011;46892;45.668;11.756;2023-04-03T06:35:05;6.13;;;2.53;;
55312;SDS011;46892;45.668;11.756;2023-04-03T06:37:32;4.30;;;2.80;;
55312;SDS011;46892;45.668;11.756;2023-04-03T06:39:58;5.40;;;2.50;;
55312;SDS011;46892;45.668;11.756;2023-04-03T06:42:25;8.20;;;2.80;;
55312;SDS011;46892;45.668;11.756;2023-04-03T06:44:51;4.60;;;2.83;;
55312;SDS011;46892;45.668;11.756;2023-04-03T06:47:17;6.87;;;2.60;;
55312;SDS011;46892;45.668;11.756;2023-04-03T06:49:43;8.87;;;3.07;;
55312;SDS011;46892;45.668;11.756;2023-04-03T06:52:09;5.50;;;3.30;;
55312;SDS011;46892;45.668;11.756;2023-04-03T06:54:37;5.57;;;2.70;;
55312;SDS011;46892;45.668;11.756;2023-04-03T06:57:03;4.43;;;3.10;;
55312;SDS011;46892;45.668;11.756;2023-04-03T06:59:29;4.83;;;3.23;;
55312;SDS011;46892;45.668;11.756;2023-04-03T07:01:55;8.43;;;4.67;;
55312;SDS011;46892;45.668;11.756;2023-04-03T07:04:20;10.57;;;4.30;;
55312;SDS011;46892;45.668;11.756;2023-04-03T07:06:46;7.60;;;2.70;;
55312;SDS011;46892;45.668;11.756;2023-04-03T07:09:13;6.77;;;2.83;;
55312;SDS011;46892;45.668;11.756;2023-04-03T07:11:39;4.93;;;2.73;;
55312;SDS011;46892;45.668;11.756;2023-04-03T07:14:06;6.90;;;2.90;;
55312;SDS011;46892;45.668;11.756;2023-04-03T07:16:33;5.77;;;3.03;;
55312;SDS011;46892;45.668;11.756;2023-04-03T07:18:59;6.00;;;2.87;;
55312;SDS011;46892;45.668;11.756;2023-04-03T07:21:26;5.30;;;2.47;;
55312;SDS011;46892;45.668;11.756;2023-04-03T07:23:52;5.00;;;2.87;;
55312;SDS011;46892;45.668;11.756;2023-04-03T07:26:18;4.90;;;2.03;;
55312;SDS011;46892;45.668;11.756;2023-04-03T07:28:45;5.23;;;2.10;;
55312;SDS011;46892;45.668;11.756;2023-04-03T07:31:13;10.13;;;2.13;;
55312;SDS011;46892;45.668;11.756;2023-04-03T07:33:39;5.27;;;1.80;;
55312;SDS011;46892;45.668;11.756;2023-04-03T07:36:06;5.50;;;2.23;;
55312;SDS011;46892;45.668;11.756;2023-04-03T07:38:33;5.47;;;1.63;;
55312;SDS011;46892;45.668;11.756;2023-04-03T07:41:00;5.73;;;2.10;;
55312;SDS011;46892;45.668;11.756;2023-04-03T07:43:26;3.67;;;1.50;;
55312;SDS011;46892;45.668;11.756;2023-04-03T07:45:52;4.10;;;1.70;;
55312;SDS011;46892;45.668;11.756;2023-04-03T07:48:22;5.37;;;1.87;;
55312;SDS011;46892;45.668;11.756;2023-04-03T07:50:49;6.57;;;1.95;;
55312;SDS011;46892;45.668;11.756;2023-04-03T07:53:16;4.57;;;1.87;;
55312;SDS011;46892;45.668;11.756;2023-04-03T07:55:43;2.70;;;1.60;;
55312;SDS011;46892;45.668;11.756;2023-04-03T07:58:12;6.30;;;1.90;;
55312;SDS011;46892;45.668;11.756;2023-04-03T08:00:40;5.60;;;1.93;;
55312;SDS011;46892;45.668;11.756;2023-04-03T08:03:06;4.97;;;1.97;;
55312;SDS011;46892;45.668;11.756;2023-04-03T08:05:38;5.47;;;1.70;;
55312;SDS011;46892;45.668;11.756;2023-04-03T08:08:09;4.47;;;1.80;;
55312;SDS011;46892;45.668;11.756;2023-04-03T08:10:36;3.97;;;1.83;;
55312;SDS011;46892;45.668;11.756;2023-04-03T08:13:02;9.80;;;2.60;;
55312;SDS011;46892;45.668;11.756;2023-04-03T08:15:29;5.07;;;2.70;;
55312;SDS011;46892;45.668;11.756;2023-04-03T08:17:56;5.97;;;2.13;;
55312;SDS011;46892;45.668;11.756;2023-04-03T08:20:23;4.87;;;1.77;;
55312;SDS011;46892;45.668;11.756;2023-04-03T08:22:48;4.77;;;1.77;;
55312;SDS011;46892;45.668;11.756;2023-04-03T08:25:14;5.73;;;2.00;;
55312;SDS011;46892;45.668;11.756;2023-04-03T08:27:40;3.20;;;1.90;;
55312;SDS011;46892;45.668;11.756;2023-04-03T08:30:06;5.43;;;2.27;;
55312;SDS011;46892;45.668;11.756;2023-04-03T08:32:34;5.63;;;2.10;;
55312;SDS011;46892;45.668;11.756;2023-04-03T08:35:01;3.67;;;1.80;;
55312;SDS011;46892;45.668;11.756;2023-04-03T08:37:27;11.13;;;2.30;;
55312;SDS011;46892;45.668;11.756;2023-04-03T08:39:52;6.40;;;2.30;;
55312;SDS011;46892;45.668;11.756;2023-04-03T08:43:03;5.23;;;2.10;;
55312;SDS011;46892;45.668;11.756;2023-04-03T08:45:12;4.03;;;1.97;;
55312;SDS011;46892;45.668;11.756;2023-04-03T08:47:44;5.63;;;2.50;;
55312;SDS011;46892;45.668;11.756;2023-04-03T08:50:12;6.93;;;1.90;;
55312;SDS011;46892;45.668;11.756;2023-04-03T08:52:45;5.00;;;2.10;;
55312;SDS011;46892;45.668;11.756;2023-04-03T08:58:00;6.40;;;1.90;;
55312;SDS011;46892;45.668;11.756;2023-04-03T09:00:29;4.25;;;2.13;;
55312;SDS011;46892;45.668;11.756;2023-04-03T09:03:15;11.00;;;2.10;;
55312;SDS011;46892;45.668;11.756;2023-04-03T09:05:53;5.43;;;3.13;;
55312;SDS011;46892;45.668;11.756;2023-04-03T09:08:31;6.17;;;2.40;;
55312;SDS011;46892;45.668;11.756;2023-04-03T09:11:06;7.30;;;2.40;;
55312;SDS011;46892;45.668;11.756;2023-04-03T09:13:57;7.30;;;3.00;;
55312;SDS011;46892;45.668;11.756;2023-04-03T09:18:53;7.03;;;2.53;;
55312;SDS011;46892;45.668;11.756;2023-04-03T09:21:30;3.27;;;1.90;;
55312;SDS011;46892;45.668;11.756;2023-04-03T09:24:01;7.97;;;2.30;;
55312;SDS011;46892;45.668;11.756;2023-04-03T09:29:07;5.43;;;2.07;;
55312;SDS011;46892;45.668;11.756;2023-04-03T09:31:40;6.17;;;2.20;;
55312;SDS011;46892;45.668;11.756;2023-04-03T09:34:22;5.67;;;2.00;;
55312;SDS011;46892;45.668;11.756;2023-04-03T09:37:00;6.83;;;2.03;;
55312;SDS011;46892;45.668;11.756;2023-04-03T09:39:31;2.83;;;1.80;;
55312;SDS011;46892;45.668;11.756;2023-04-03T09:42:03;5.77;;;2.20;;
55312;SDS011;46892;45.668;11.756;2023-04-03T09:44:31;4.67;;;1.80;;
55312;SDS011;46892;45.668;11.756;2023-04-03T09:46:57;3.00;;;1.87;;
55312;SDS011;46892;45.668;11.756;2023-04-03T09:49:23;4.90;;;2.20;;
55312;SDS011;46892;45.668;11.756;2023-04-03T09:51:49;3.97;;;1.73;;
55312;SDS011;46892;45.668;11.756;2023-04-03T09:57:11;6.30;;;2.30;;
55312;SDS011;46892;45.668;11.756;2023-04-03T09:59:40;2.63;;;1.83;;
55312;SDS011;46892;45.668;11.756;2023-04-03T10:04:47;3.17;;;1.73;;
55312;SDS011;46892;45.668;11.756;2023-04-03T10:12:43;3.50;;;1.93;;
55312;SDS011;46892;45.668;11.756;2023-04-03T10:15:16;2.40;;;1.60;;
55312;SDS011;46892;45.668;11.756;2023-04-03T10:17:57;3.87;;;1.67;;
55312;SDS011;46892;45.668;11.756;2023-04-03T10:20:36;2.37;;;1.70;;
55312;SDS011;46892;45.668;11.756;2023-04-03T10:23:17;3.30;;;1.80;;
55312;SDS011;46892;45.668;11.756;2023-04-03T10:28:18;3.47;;;1.70;;
55312;SDS011;46892;45.668;11.756;2023-04-03T10:31:06;3.13;;;2.00;;
55312;SDS011;46892;45.668;11.756;2023-04-03T10:34:05;6.40;;;2.00;;
55312;SDS011;46892;45.668;11.756;2023-04-03T10:47:31;4.00;;;2.07;;
55312;SDS011;46892;45.668;11.756;2023-04-03T10:58:58;4.87;;;2.23;;
55312;SDS011;46892;45.668;11.756;2023-04-03T11:01:37;3.73;;;2.27;;
55312;SDS011;46892;45.668;11.756;2023-04-03T11:04:06;4.60;;;2.20;;
55312;SDS011;46892;45.668;11.756;2023-04-03T11:06:37;5.37;;;2.03;;
55312;SDS011;46892;45.668;11.756;2023-04-03T11:11:37;4.73;;;2.07;;
55312;SDS011;46892;45.668;11.756;2023-04-03T11:14:09;3.37;;;2.03;;
55312;SDS011;46892;45.668;11.756;2023-04-03T11:16:51;5.33;;;2.23;;
55312;SDS011;46892;45.668;11.756;2023-04-03T11:28:01;5.27;;;2.17;;
55312;SDS011;46892;45.668;11.756;2023-04-03T11:35:53;6.77;;;2.60;;
55312;SDS011;46892;45.668;11.756;2023-04-03T11:38:47;4.23;;;2.10;;
55312;SDS011;46892;45.668;11.756;2023-04-03T11:41:17;4.83;;;2.00;;
55312;SDS011;46892;45.668;11.756;2023-04-03T11:44:01;3.47;;;2.07;;
55312;SDS011;46892;45.668;11.756;2023-04-03T11:46:52;4.57;;;2.23;;
55312;SDS011;46892;45.668;11.756;2023-04-03T11:52:54;3.97;;;2.47;;
55312;SDS011;46892;45.668;11.756;2023-04-03T12:37:59;5.50;;;2.60;;
55312;SDS011;46892;45.668;11.756;2023-04-03T12:48:25;2.67;;;2.03;;
55312;SDS011;46892;45.668;11.756;2023-04-03T12:50:53;3.90;;;2.07;;
55312;SDS011;46892;45.668;11.756;2023-04-03T12:53:21;3.97;;;2.27;;
55312;SDS011;46892;45.668;11.756;2023-04-03T12:55:56;6.93;;;2.47;;
55312;SDS011;46892;45.668;11.756;2023-04-03T12:58:27;5.00;;;2.50;;
55312;SDS011;46892;45.668;11.756;2023-04-03T13:01:03;5.60;;;2.90;;
55312;SDS011;46892;45.668;11.756;2023-04-03T13:03:35;4.93;;;2.80;;
55312;SDS011;46892;45.668;11.756;2023-04-03T13:06:17;5.57;;;2.47;;
55312;SDS011;46892;45.668;11.756;2023-04-03T13:08:55;3.73;;;1.90;;
55312;SDS011;46892;45.668;11.756;2023-04-03T13:11:23;4.03;;;2.50;;
55312;SDS011;46892;45.668;11.756;2023-04-03T13:14:00;3.47;;;2.47;;
55312;SDS011;46892;45.668;11.756;2023-04-03T13:16:31;3.65;;;2.25;;
55312;SDS011;46892;45.668;11.756;2023-04-03T13:18:58;4.80;;;2.27;;
55312;SDS011;46892;45.668;11.756;2023-04-03T13:21:25;5.37;;;2.30;;
55312;SDS011;46892;45.668;11.756;2023-04-03T13:23:54;4.47;;;2.30;;
55312;SDS011;46892;45.668;11.756;2023-04-03T13:26:23;5.73;;;2.30;;
55312;SDS011;46892;45.668;11.756;2023-04-03T13:28:52;7.43;;;2.45;;
55312;SDS011;46892;45.668;11.756;2023-04-03T13:31:22;3.93;;;2.53;;
55312;SDS011;46892;45.668;11.756;2023-04-03T13:34:02;4.90;;;2.30;;
55312;SDS011;46892;45.668;11.756;2023-04-03T13:41:38;2.60;;;1.70;;
55312;SDS011;46892;45.668;11.756;2023-04-03T13:46:57;3.60;;;2.40;;
55312;SDS011;46892;45.668;11.756;2023-04-03T13:49:45;6.20;;;3.00;;
55312;SDS011;46892;45.668;11.756;2023-04-03T13:52:33;4.23;;;2.63;;
55312;SDS011;46892;45.668;11.756;2023-04-03T13:55:22;3.97;;;2.60;;
55312;SDS011;46892;45.668;11.756;2023-04-03T14:03:26;4.50;;;2.80;;
55312;SDS011;46892;45.668;11.756;2023-04-03T14:05:57;4.60;;;2.60;;
55312;SDS011;46892;45.668;11.756;2023-04-03T14:08:23;5.03;;;3.10;;
55312;SDS011;46892;45.668;11.756;2023-04-03T14:10:48;4.30;;;2.40;;
55312;SDS011;46892;45.668;11.756;2023-04-03T14:13:16;6.67;;;2.83;;
55312;SDS011;46892;45.668;11.756;2023-04-03T14:15:44;5.03;;;2.60;;
55312;SDS011;46892;45.668;11.756;2023-04-03T14:18:15;4.40;;;2.97;;
55312;SDS011;46892;45.668;11.756;2023-04-03T14:20:42;3.50;;;2.50;;
55312;SDS011;46892;45.668;11.756;2023-04-03T14:23:08;3.47;;;2.20;;
55312;SDS011;46892;45.668;11.756;2023-04-03T14:25:35;4.03;;;2.50;;
55312;SDS011;46892;45.668;11.756;2023-04-03T14:28:01;5.37;;;2.43;;
55312;SDS011;46892;45.668;11.756;2023-04-03T14:30:37;4.37;;;2.83;;
55312;SDS011;46892;45.668;11.756;2023-04-03T14:33:03;3.70;;;2.37;;
55312;SDS011;46892;45.668;11.756;2023-04-03T14:35:28;4.97;;;3.00;;
55312;SDS011;46892;45.668;11.756;2023-04-03T14:37:54;8.37;;;3.10;;
55312;SDS011;46892;45.668;11.756;2023-04-03T14:40:22;3.87;;;2.17;;
55312;SDS011;46892;45.668;11.756;2023-04-03T14:42:50;4.57;;;2.40;;
55312;SDS011;46892;45.668;11.756;2023-04-03T14:45:20;3.47;;;2.13;;
55312;SDS011;46892;45.668;11.756;2023-04-03T14:47:55;4.13;;;2.40;;
55312;SDS011;46892;45.668;11.756;2023-04-03T14:50:23;2.93;;;2.30;;
55312;SDS011;46892;45.668;11.756;2023-04-03T14:52:51;4.83;;;2.00;;
55312;SDS011;46892;45.668;11.756;2023-04-03T14:55:20;5.97;;;1.70;;
55312;SDS011;46892;45.668;11.756;2023-04-03T14:57:47;6.07;;;2.03;;
55312;SDS011;46892;45.668;11.756;2023-04-03T15:00:13;6.63;;;1.70;;
55312;SDS011;46892;45.668;11.756;2023-04-03T15:02:41;4.87;;;1.63;;
55312;SDS011;46892;45.668;11.756;2023-04-03T15:05:08;6.60;;;1.50;;
55312;SDS011;46892;45.668;11.756;2023-04-03T15:07:42;9.63;;;1.73;;
55312;SDS011;46892;45.668;11.756;2023-04-03T15:12:40;9.13;;;1.70;;
55312;SDS011;46892;45.668;11.756;2023-04-03T15:15:07;6.33;;;1.53;;
55312;SDS011;46892;45.668;11.756;2023-04-03T15:17:33;5.73;;;1.40;;
55312;SDS011;46892;45.668;11.756;2023-04-03T15:20:00;4.00;;;1.37;;
55312;SDS011;46892;45.668;11.756;2023-04-03T15:22:27;5.07;;;1.57;;
55312;SDS011;46892;45.668;11.756;2023-04-03T15:24:52;6.47;;;1.40;;
55312;SDS011;46892;45.668;11.756;2023-04-03T15:27:18;6.10;;;1.40;;
55312;SDS011;46892;45.668;11.756;2023-04-03T15:29:44;7.23;;;1.53;;
55312;SDS011;46892;45.668;11.756;2023-04-03T15:32:11;5.40;;;1.50;;
55312;SDS011;46892;45.668;11.756;2023-04-03T15:34:37;8.77;;;1.60;;
55312;SDS011;46892;45.668;11.756;2023-04-03T15:37:03;3.47;;;1.40;;
55312;SDS011;46892;45.668;11.756;2023-04-03T15:39:30;7.13;;;1.30;;
55312;SDS011;46892;45.668;11.756;2023-04-03T15:41:56;5.90;;;1.53;;
55312;SDS011;46892;45.668;11.756;2023-04-03T15:44:24;5.80;;;1.53;;
55312;SDS011;46892;45.668;11.756;2023-04-03T15:46:50;10.10;;;1.57;;
55312;SDS011;46892;45.668;11.756;2023-04-03T15:49:17;6.57;;;1.70;;
55312;SDS011;46892;45.668;11.756;2023-04-03T15:51:43;3.50;;;1.53;;
55312;SDS011;46892;45.668;11.756;2023-04-03T15:54:09;3.63;;;1.30;;
55312;SDS011;46892;45.668;11.756;2023-04-03T15:56:35;3.17;;;1.20;;
55312;SDS011;46892;45.668;11.756;2023-04-03T15:59:01;3.63;;;1.37;;
55312;SDS011;46892;45.668;11.756;2023-04-03T16:01:26;6.17;;;1.30;;
55312;SDS011;46892;45.668;11.756;2023-04-03T16:03:52;3.17;;;1.20;;
55312;SDS011;46892;45.668;11.756;2023-04-03T16:06:18;5.07;;;1.30;;
55312;SDS011;46892;45.668;11.756;2023-04-03T16:08:46;11.40;;;1.80;;
55312;SDS011;46892;45.668;11.756;2023-04-03T16:11:14;4.43;;;1.20;;
55312;SDS011;46892;45.668;11.756;2023-04-03T16:13:39;4.83;;;1.20;;
55312;SDS011;46892;45.668;11.756;2023-04-03T16:16:05;3.87;;;1.33;;
55312;SDS011;46892;45.668;11.756;2023-04-03T16:18:32;8.10;;;1.50;;
55312;SDS011;46892;45.668;11.756;2023-04-03T16:21:00;3.17;;;1.27;;
55312;SDS011;46892;45.668;11.756;2023-04-03T16:23:26;3.03;;;1.40;;
55312;SDS011;46892;45.668;11.756;2023-04-03T16:25:51;4.30;;;1.20;;
55312;SDS011;46892;45.668;11.756;2023-04-03T16:28:17;6.00;;;1.30;;
55312;SDS011;46892;45.668;11.756;2023-04-03T16:30:43;3.77;;;1.27;;
55312;SDS011;46892;45.668;11.756;2023-04-03T16:33:11;2.23;;;1.13;;
55312;SDS011;46892;45.668;11.756;2023-04-03T16:35:37;4.37;;;1.00;;
55312;SDS011;46892;45.668;11.756;2023-04-03T16:38:04;6.43;;;1.63;;
55312;SDS011;46892;45.668;11.756;2023-04-03T16:40:30;4.23;;;1.23;;
55312;SDS011;46892;45.668;11.756;2023-04-03T16:42:55;7.13;;;1.60;;
55312;SDS011;46892;45.668;11.756;2023-04-03T16:45:21;4.23;;;1.30;;
55312;SDS011;46892;45.668;11.756;2023-04-03T16:47:47;4.50;;;1.37;;
55312;SDS011;46892;45.668;11.756;2023-04-03T16:50:13;4.73;;;1.70;;
55312;SDS011;46892;45.668;11.756;2023-04-03T16:52:39;8.80;;;1.60;;
55312;SDS011;46892;45.668;11.756;2023-04-03T16:55:05;2.90;;;1.03;;
55312;SDS011;46892;45.668;11.756;2023-04-03T16:57:30;5.50;;;1.53;;